sensor_id;sensor_type;location;lat;lon;timestamp;pressure;altitude;pressure_sealevel;temperature;humidity
60437;BME280;46289;51.992;4.498;2022-07-29T00:01:52;101936.03;;;16.12;97.23
60437;BME280;46289;51.992;4.498;2022-07-29T00:04:24;101932.50;;;16.10;97.16
60437;BME280;46289;51.992;4.498;2022-07-29T00:06:55;101925.38;;;16.02;98.08
60437;BME280;46289;51.992;4.498;2022-07-29T00:09:25;101923.63;;;16.05;97.66
60437;BME280;46289;51.992;4.498;2022-07-29T00:11:58;101926.25;;;16.00;97.88
60437;BME280;46289;51.992;4.498;2022-07-29T00:14:29;101912.13;;;15.98;98.01
60437;BME280;46289;51.992;4.498;2022-07-29T00:16:59;101923.56;;;15.97;98.75
60437;BME280;46289;51.992;4.498;2022-07-29T00:19:32;101918.28;;;15.95;98.82
60437;BME280;46289;51.992;4.498;2022-07-29T00:22:03;101915.63;;;15.97;98.68
60437;BME280;46289;51.992;4.498;2022-07-29T00:24:34;101920.94;;;15.97;98.48
60437;BME280;46289;51.992;4.498;2022-07-29T00:27:04;101919.09;;;15.90;98.94
60437;BME280;46289;51.992;4.498;2022-07-29T00:29:33;101917.34;;;15.89;99.18
60437;BME280;46289;51.992;4.498;2022-07-29T00:32:04;101914.66;;;15.86;98.94
60437;BME280;46289;51.992;4.498;2022-07-29T00:34:39;101915.50;;;15.82;99.78
60437;BME280;46289;51.992;4.498;2022-07-29T00:37:21;101911.06;;;15.79;100.00
60437;BME280;46289;51.992;4.498;2022-07-29T00:39:51;101910.19;;;15.77;100.00
60437;BME280;46289;51.992;4.498;2022-07-29T00:42:22;101907.53;;;15.77;99.90
60437;BME280;46289;51.992;4.498;2022-07-29T00:44:52;101903.97;;;15.75;100.00
60437;BME280;46289;51.992;4.498;2022-07-29T00:47:22;101907.53;;;15.77;100.00
60437;BME280;46289;51.992;4.498;2022-07-29T00:49:54;101905.72;;;15.73;100.00
60437;BME280;46289;51.992;4.498;2022-07-29T00:52:25;101902.13;;;15.66;100.00
60437;BME280;46289;51.992;4.498;2022-07-29T00:54:56;101901.22;;;15.61;100.00
60437;BME280;46289;51.992;4.498;2022-07-29T00:57:34;101902.09;;;15.62;100.00
60437;BME280;46289;51.992;4.498;2022-07-29T01:00:07;101905.63;;;15.62;100.00
60437;BME280;46289;51.992;4.498;2022-07-29T01:02:38;101898.50;;;15.55;100.00
60437;BME280;46289;51.992;4.498;2022-07-29T01:05:12;101898.50;;;15.54;100.00
60437;BME280;46289;51.992;4.498;2022-07-29T01:07:46;101888.81;;;15.54;100.00
60437;BME280;46289;51.992;4.498;2022-07-29T01:10:19;101894.06;;;15.53;100.00
60437;BME280;46289;51.992;4.498;2022-07-29T01:12:51;101891.41;;;15.50;100.00
60437;BME280;46289;51.992;4.498;2022-07-29T01:15:24;101889.59;;;15.46;100.00
60437;BME280;46289;51.992;4.498;2022-07-29T01:18:01;101896.66;;;15.47;100.00
60437;BME280;46289;51.992;4.498;2022-07-29T01:21:00;101888.72;;;15.47;100.00
60437;BME280;46289;51.992;4.498;2022-07-29T01:23:56;101886.94;;;15.46;100.00
60437;BME280;46289;51.992;4.498;2022-07-29T01:26:33;101884.34;;;15.49;100.00
60437;BME280;46289;51.992;4.498;2022-07-29T01:29:17;101886.03;;;15.41;100.00
60437;BME280;46289;51.992;4.498;2022-07-29T01:31:56;101890.41;;;15.38;100.00
60437;BME280;46289;51.992;4.498;2022-07-29T01:34:35;101887.72;;;15.35;100.00
60437;BME280;46289;51.992;4.498;2022-07-29T01:37:15;101889.50;;;15.35;100.00
60437;BME280;46289;51.992;4.498;2022-07-29T01:39:50;101877.16;;;15.34;100.00
60437;BME280;46289;51.992;4.498;2022-07-29T01:42:27;101876.25;;;15.33;100.00
60437;BME280;46289;51.992;4.498;2022-07-29T01:45:05;101885.94;;;15.33;100.00
60437;BME280;46289;51.992;4.498;2022-07-29T01:47:44;101885.84;;;15.25;100.00
60437;BME280;46289;51.992;4.498;2022-07-29T01:50:20;101882.31;;;15.23;100.00
60437;BME280;46289;51.992;4.498;2022-07-29T01:52:56;101878.81;;;15.26;100.00
60437;BME280;46289;51.992;4.498;2022-07-29T01:55:35;101877.03;;;15.25;100.00
60437;BME280;46289;51.992;4.498;2022-07-29T01:58:08;101864.69;;;15.22;100.00
60437;BME280;46289;51.992;4.498;2022-07-29T02:00:44;101867.28;;;15.18;100.00
60437;BME280;46289;51.992;4.498;2022-07-29T02:03:16;101864.59;;;15.13;100.00
60437;BME280;46289;51.992;4.498;2022-07-29T02:05:48;101867.22;;;15.13;100.00
60437;BME280;46289;51.992;4.498;2022-07-29T02:08:23;101868.94;;;15.10;100.00
60437;BME280;46289;51.992;4.498;2022-07-29T02:10:55;101859.28;;;15.10;100.00
60437;BME280;46289;51.992;4.498;2022-07-29T02:13:29;101867.19;;;15.10;100.00
60437;BME280;46289;51.992;4.498;2022-07-29T02:16:05;101865.41;;;15.08;100.00
60437;BME280;46289;51.992;4.498;2022-07-29T02:18:39;101866.28;;;15.08;100.00
60437;BME280;46289;51.992;4.498;2022-07-29T02:21:16;101861.00;;;15.07;100.00
60437;BME280;46289;51.992;4.498;2022-07-29T02:23:50;101860.09;;;15.06;100.00
60437;BME280;46289;51.992;4.498;2022-07-29T02:26:23;101865.34;;;15.03;100.00
60437;BME280;46289;51.992;4.498;2022-07-29T02:28:55;101862.72;;;15.03;100.00
60437;BME280;46289;51.992;4.498;2022-07-29T02:31:33;101859.16;;;15.01;100.00
60437;BME280;46289;51.992;4.498;2022-07-29T02:34:07;101863.59;;;15.02;100.00
60437;BME280;46289;51.992;4.498;2022-07-29T02:36:39;101860.03;;;15.00;100.00
60437;BME280;46289;51.992;4.498;2022-07-29T02:39:17;101855.56;;;14.93;100.00
60437;BME280;46289;51.992;4.498;2022-07-29T02:41:51;101858.16;;;14.90;100.00
60437;BME280;46289;51.992;4.498;2022-07-29T02:44:24;101856.34;;;14.86;100.00
60437;BME280;46289;51.992;4.498;2022-07-29T02:47:09;101854.56;;;14.85;100.00
60437;BME280;46289;51.992;4.498;2022-07-29T02:49:44;101858.06;;;14.82;100.00
60437;BME280;46289;51.992;4.498;2022-07-29T02:52:22;101851.84;;;14.79;100.00
60437;BME280;46289;51.992;4.498;2022-07-29T02:54:58;101846.56;;;14.79;100.00
60437;BME280;46289;51.992;4.498;2022-07-29T02:57:33;101847.47;;;14.81;100.00
60437;BME280;46289;51.992;4.498;2022-07-29T03:00:22;101849.19;;;14.77;100.00
60437;BME280;46289;51.992;4.498;2022-07-29T03:03:00;101847.44;;;14.76;100.00
60437;BME280;46289;51.992;4.498;2022-07-29T03:05:34;101850.06;;;14.75;100.00
60437;BME280;46289;51.992;4.498;2022-07-29T03:08:06;101842.03;;;14.67;100.00
60437;BME280;46289;51.992;4.498;2022-07-29T03:10:40;101854.28;;;14.62;100.00
60437;BME280;46289;51.992;4.498;2022-07-29T03:13:14;101849.91;;;14.64;100.00
60437;BME280;46289;51.992;4.498;2022-07-29T03:15:46;101841.06;;;14.60;100.00
60437;BME280;46289;51.992;4.498;2022-07-29T03:18:21;101836.69;;;14.61;100.00
60437;BME280;46289;51.992;4.498;2022-07-29T03:20:51;101841.06;;;14.59;100.00
60437;BME280;46289;51.992;4.498;2022-07-29T03:23:22;101841.94;;;14.59;100.00
60437;BME280;46289;51.992;4.498;2022-07-29T03:26:02;101846.31;;;14.54;100.00
60437;BME280;46289;51.992;4.498;2022-07-29T03:28:32;101845.41;;;14.54;100.00
60437;BME280;46289;51.992;4.498;2022-07-29T03:31:05;101840.06;;;14.49;100.00
60437;BME280;46289;51.992;4.498;2022-07-29T03:33:38;101841.84;;;14.50;100.00
60437;BME280;46289;51.992;4.498;2022-07-29T03:36:07;101843.59;;;14.48;100.00
60437;BME280;46289;51.992;4.498;2022-07-29T03:38:41;101842.72;;;14.49;100.00
60437;BME280;46289;51.992;4.498;2022-07-29T03:41:13;101844.50;;;14.50;100.00
60437;BME280;46289;51.992;4.498;2022-07-29T03:43:50;101835.66;;;14.47;100.00
60437;BME280;46289;51.992;4.498;2022-07-29T03:46:23;101845.31;;;14.46;100.00
60437;BME280;46289;51.992;4.498;2022-07-29T03:49:02;101836.50;;;14.46;100.00
60437;BME280;46289;51.992;4.498;2022-07-29T03:51:35;101839.13;;;14.44;100.00
60437;BME280;46289;51.992;4.498;2022-07-29T03:54:05;101835.59;;;14.42;100.00
60437;BME280;46289;51.992;4.498;2022-07-29T03:56:40;101837.34;;;14.42;100.00
60437;BME280;46289;51.992;4.498;2022-07-29T03:59:16;101832.06;;;14.43;100.00
60437;BME280;46289;51.992;4.498;2022-07-29T04:01:50;101832.88;;;14.39;100.00
60437;BME280;46289;51.992;4.498;2022-07-29T04:04:23;101843.53;;;14.44;100.00
60437;BME280;46289;51.992;4.498;2022-07-29T04:06:54;101843.44;;;14.40;100.00
60437;BME280;46289;51.992;4.498;2022-07-29T04:09:24;101839.06;;;14.41;100.00
60437;BME280;46289;51.992;4.498;2022-07-29T04:11:55;101833.72;;;14.38;100.00
60437;BME280;46289;51.992;4.498;2022-07-29T04:14:31;101839.88;;;14.37;100.00
60437;BME280;46289;51.992;4.498;2022-07-29T04:17:02;101839.06;;;14.41;100.00
60437;BME280;46289;51.992;4.498;2022-07-29T04:19:35;101841.66;;;14.38;100.00
60437;BME280;46289;51.992;4.498;2022-07-29T04:22:05;101845.19;;;14.40;100.00
60437;BME280;46289;51.992;4.498;2022-07-29T04:24:35;101840.88;;;14.42;100.00
60437;BME280;46289;51.992;4.498;2022-07-29T04:27:11;101840.78;;;14.39;100.00
60437;BME280;46289;51.992;4.498;2022-07-29T04:29:42;101839.91;;;14.38;100.00
60437;BME280;46289;51.992;4.498;2022-07-29T04:32:23;101835.47;;;14.36;100.00
60437;BME280;46289;51.992;4.498;2022-07-29T04:34:59;101831.91;;;14.34;100.00
60437;BME280;46289;51.992;4.498;2022-07-29T04:37:29;101832.81;;;14.36;100.00
60437;BME280;46289;51.992;4.498;2022-07-29T04:40:02;101837.25;;;14.37;100.00
60437;BME280;46289;51.992;4.498;2022-07-29T04:42:32;101832.75;;;14.31;100.00
60437;BME280;46289;51.992;4.498;2022-07-29T04:45:12;101836.28;;;14.32;100.00
60437;BME280;46289;51.992;4.498;2022-07-29T04:47:48;101840.66;;;14.30;100.00
60437;BME280;46289;51.992;4.498;2022-07-29T04:50:21;101838.94;;;14.32;100.00
60437;BME280;46289;51.992;4.498;2022-07-29T04:52:52;101840.72;;;14.34;100.00
60437;BME280;46289;51.992;4.498;2022-07-29T04:55:23;101838.09;;;14.36;100.00
60437;BME280;46289;51.992;4.498;2022-07-29T04:57:53;101833.75;;;14.39;100.00
60437;BME280;46289;51.992;4.498;2022-07-29T05:00:27;101833.72;;;14.38;100.00
60437;BME280;46289;51.992;4.498;2022-07-29T05:03:00;101836.41;;;14.39;100.00
60437;BME280;46289;51.992;4.498;2022-07-29T05:05:32;101833.84;;;14.43;100.00
60437;BME280;46289;51.992;4.498;2022-07-29T05:08:03;101839.16;;;14.46;100.00
60437;BME280;46289;51.992;4.498;2022-07-29T05:10:33;101849.72;;;14.47;100.00
60437;BME280;46289;51.992;4.498;2022-07-29T05:13:05;101846.19;;;14.45;100.00
60437;BME280;46289;51.992;4.498;2022-07-29T05:15:38;101848.94;;;14.54;100.00
60437;BME280;46289;51.992;4.498;2022-07-29T05:18:08;101841.94;;;14.59;100.00
60437;BME280;46289;51.992;4.498;2022-07-29T05:20:40;101841.22;;;14.72;100.00
60437;BME280;46289;51.992;4.498;2022-07-29T05:23:11;101845.09;;;15.02;100.00
60437;BME280;46289;51.992;4.498;2022-07-29T05:25:42;101837.44;;;15.29;100.00
60437;BME280;46289;51.992;4.498;2022-07-29T05:28:13;101847.38;;;15.55;100.00
60437;BME280;46289;51.992;4.498;2022-07-29T05:30:44;101853.78;;;15.81;100.00
60437;BME280;46289;51.992;4.498;2022-07-29T05:33:18;101848.63;;;16.01;100.00
60437;BME280;46289;51.992;4.498;2022-07-29T05:36:05;101855.00;;;16.32;100.00
60437;BME280;46289;51.992;4.498;2022-07-29T05:38:36;101856.06;;;16.61;99.17
60437;BME280;46289;51.992;4.498;2022-07-29T05:41:06;101852.63;;;16.90;98.11
60437;BME280;46289;51.992;4.498;2022-07-29T05:43:36;101851.75;;;16.91;95.26
60437;BME280;46289;51.992;4.498;2022-07-29T05:46:06;101850.03;;;17.08;94.23
60437;BME280;46289;51.992;4.498;2022-07-29T05:48:36;101855.38;;;17.16;92.43
60437;BME280;46289;51.992;4.498;2022-07-29T05:51:13;101857.09;;;17.05;92.41
60437;BME280;46289;51.992;4.498;2022-07-29T05:53:43;101856.31;;;17.50;91.52
60437;BME280;46289;51.992;4.498;2022-07-29T05:56:13;101860.69;;;17.25;91.39
60437;BME280;46289;51.992;4.498;2022-07-29T05:58:43;101855.44;;;17.54;91.10
60437;BME280;46289;51.992;4.498;2022-07-29T06:01:13;101853.66;;;17.80;89.64
60437;BME280;46289;51.992;4.498;2022-07-29T06:03:44;101853.66;;;18.06;87.76
60437;BME280;46289;51.992;4.498;2022-07-29T06:06:19;101849.19;;;18.31;85.04
60437;BME280;46289;51.992;4.498;2022-07-29T06:08:49;101858.06;;;18.01;85.92
60437;BME280;46289;51.992;4.498;2022-07-29T06:11:19;101863.38;;;18.00;86.89
60437;BME280;46289;51.992;4.498;2022-07-29T06:13:50;101861.63;;;17.98;86.07
60437;BME280;46289;51.992;4.498;2022-07-29T06:16:21;101858.94;;;18.21;84.82
60437;BME280;46289;51.992;4.498;2022-07-29T06:18:56;101853.56;;;18.41;83.86
60437;BME280;46289;51.992;4.498;2022-07-29T06:21:30;101855.38;;;18.28;83.62
60437;BME280;46289;51.992;4.498;2022-07-29T06:24:05;101859.81;;;18.29;83.17
60437;BME280;46289;51.992;4.498;2022-07-29T06:26:35;101865.16;;;17.96;84.84
60437;BME280;46289;51.992;4.498;2022-07-29T06:29:06;101858.97;;;17.95;85.47
60437;BME280;46289;51.992;4.498;2022-07-29T06:31:37;101858.97;;;17.73;85.73
60437;BME280;46289;51.992;4.498;2022-07-29T06:34:08;101858.97;;;17.73;85.66
60437;BME280;46289;51.992;4.498;2022-07-29T06:36:41;101874.88;;;17.50;87.80
60437;BME280;46289;51.992;4.498;2022-07-29T06:39:14;101877.53;;;17.45;87.82
60437;BME280;46289;51.992;4.498;2022-07-29T06:41:48;101871.34;;;17.51;88.49
60437;BME280;46289;51.992;4.498;2022-07-29T06:44:20;101867.81;;;18.10;87.09
60437;BME280;46289;51.992;4.498;2022-07-29T06:46:50;101869.38;;;18.78;84.65
60437;BME280;46289;51.992;4.498;2022-07-29T06:49:24;101875.34;;;19.24;81.83
60437;BME280;46289;51.992;4.498;2022-07-29T06:52:00;101874.19;;;19.71;78.25
60437;BME280;46289;51.992;4.498;2022-07-29T06:54:30;101871.34;;;19.87;76.08
60437;BME280;46289;51.992;4.498;2022-07-29T06:57:01;101880.84;;;20.16;73.85
60437;BME280;46289;51.992;4.498;2022-07-29T06:59:31;101868.22;;;20.39;73.48
60437;BME280;46289;51.992;4.498;2022-07-29T07:02:02;101874.75;;;20.05;74.49
60437;BME280;46289;51.992;4.498;2022-07-29T07:04:32;101878.34;;;19.98;73.76
60437;BME280;46289;51.992;4.498;2022-07-29T07:07:05;101876.66;;;19.90;74.24
60437;BME280;46289;51.992;4.498;2022-07-29T07:09:38;101877.75;;;19.70;74.63
60437;BME280;46289;51.992;4.498;2022-07-29T07:12:08;101872.50;;;19.59;75.61
60437;BME280;46289;51.992;4.498;2022-07-29T07:14:42;101889.31;;;19.63;75.67
60437;BME280;46289;51.992;4.498;2022-07-29T07:17:12;101887.69;;;19.37;76.17
60437;BME280;46289;51.992;4.498;2022-07-29T07:19:42;101883.19;;;19.47;75.98
60437;BME280;46289;51.992;4.498;2022-07-29T07:22:16;101883.19;;;19.53;76.53
60437;BME280;46289;51.992;4.498;2022-07-29T07:24:46;101883.25;;;19.36;76.06
60437;BME280;46289;51.992;4.498;2022-07-29T07:27:17;101892.28;;;19.09;76.92
60437;BME280;46289;51.992;4.498;2022-07-29T07:29:52;101893.09;;;19.22;77.18
60437;BME280;46289;51.992;4.498;2022-07-29T07:32:22;101903.81;;;19.07;77.52
60437;BME280;46289;51.992;4.498;2022-07-29T07:34:52;101893.94;;;19.32;77.65
60437;BME280;46289;51.992;4.498;2022-07-29T07:37:28;101904.41;;;19.61;76.47
60437;BME280;46289;51.992;4.498;2022-07-29T07:40:02;101895.69;;;19.33;75.88
60437;BME280;46289;51.992;4.498;2022-07-29T07:42:32;101893.03;;;19.34;76.39
60437;BME280;46289;51.992;4.498;2022-07-29T07:45:06;101900.00;;;19.59;75.61
60437;BME280;46289;51.992;4.498;2022-07-29T07:47:41;101892.31;;;20.22;74.37
60437;BME280;46289;51.992;4.498;2022-07-29T07:50:13;101902.78;;;20.45;72.56
60437;BME280;46289;51.992;4.498;2022-07-29T07:52:52;101904.09;;;20.83;70.60
60437;BME280;46289;51.992;4.498;2022-07-29T07:55:26;101906.63;;;20.95;69.88
60437;BME280;46289;51.992;4.498;2022-07-29T07:58:17;101888.50;;;21.21;69.00
60437;BME280;46289;51.992;4.498;2022-07-29T08:00:50;101886.09;;;21.02;68.08
60437;BME280;46289;51.992;4.498;2022-07-29T08:03:21;101882.19;;;20.61;69.56
60437;BME280;46289;51.992;4.498;2022-07-29T08:05:55;101887.88;;;21.01;70.02
60437;BME280;46289;51.992;4.498;2022-07-29T08:08:30;101876.91;;;21.81;68.66
60437;BME280;46289;51.992;4.498;2022-07-29T08:11:01;101873.72;;;22.58;67.17
60437;BME280;46289;51.992;4.498;2022-07-29T08:13:36;101873.19;;;22.85;64.96
60437;BME280;46289;51.992;4.498;2022-07-29T08:16:07;101873.97;;;23.29;63.12
60437;BME280;46289;51.992;4.498;2022-07-29T08:18:44;101874.22;;;23.58;60.99
60437;BME280;46289;51.992;4.498;2022-07-29T08:21:16;101879.97;;;23.40;58.37
60437;BME280;46289;51.992;4.498;2022-07-29T08:23:50;101881.47;;;23.13;60.90
60437;BME280;46289;51.992;4.498;2022-07-29T08:26:43;101887.00;;;23.44;58.58
60437;BME280;46289;51.992;4.498;2022-07-29T08:29:14;101881.75;;;23.39;60.25
60437;BME280;46289;51.992;4.498;2022-07-29T08:31:45;101884.50;;;23.36;58.42
60437;BME280;46289;51.992;4.498;2022-07-29T08:34:16;101887.44;;;23.64;58.14
60437;BME280;46289;51.992;4.498;2022-07-29T08:36:54;101884.88;;;24.29;57.04
60437;BME280;46289;51.992;4.498;2022-07-29T08:39:30;101889.41;;;24.27;56.30
60437;BME280;46289;51.992;4.498;2022-07-29T08:42:00;101883.03;;;24.31;56.01
60437;BME280;46289;51.992;4.498;2022-07-29T08:44:31;101892.94;;;24.29;55.52
60437;BME280;46289;51.992;4.498;2022-07-29T08:47:03;101889.63;;;24.18;57.74
60437;BME280;46289;51.992;4.498;2022-07-29T08:49:34;101884.25;;;24.52;55.60
60437;BME280;46289;51.992;4.498;2022-07-29T08:52:05;101889.06;;;25.01;55.24
60437;BME280;46289;51.992;4.498;2022-07-29T08:54:43;101886.53;;;24.66;53.96
60437;BME280;46289;51.992;4.498;2022-07-29T08:57:13;101890.25;;;24.29;54.93
60437;BME280;46289;51.992;4.498;2022-07-29T08:59:49;101892.00;;;23.95;56.82
60437;BME280;46289;51.992;4.498;2022-07-29T09:02:22;101889.25;;;23.98;56.79
60437;BME280;46289;51.992;4.498;2022-07-29T09:04:52;101900.31;;;23.47;58.69
60437;BME280;46289;51.992;4.498;2022-07-29T09:07:22;101885.16;;;23.85;56.94
60437;BME280;46289;51.992;4.498;2022-07-29T09:10:04;101889.19;;;24.67;55.61
60437;BME280;46289;51.992;4.498;2022-07-29T09:12:34;101887.94;;;24.79;54.89
60437;BME280;46289;51.992;4.498;2022-07-29T09:15:05;101885.03;;;24.56;55.10
60437;BME280;46289;51.992;4.498;2022-07-29T09:17:43;101878.38;;;24.04;57.79
60437;BME280;46289;51.992;4.498;2022-07-29T09:20:17;101875.09;;;25.20;56.17
60437;BME280;46289;51.992;4.498;2022-07-29T09:22:48;101885.69;;;25.24;54.39
60437;BME280;46289;51.992;4.498;2022-07-29T09:25:36;101888.03;;;25.35;55.30
60437;BME280;46289;51.992;4.498;2022-07-29T09:28:07;101887.66;;;25.47;54.77
60437;BME280;46289;51.992;4.498;2022-07-29T09:30:49;101880.56;;;25.17;53.77
60437;BME280;46289;51.992;4.498;2022-07-29T09:33:22;101878.63;;;25.78;53.47
60437;BME280;46289;51.992;4.498;2022-07-29T09:36:00;101878.75;;;25.17;53.35
60437;BME280;46289;51.992;4.498;2022-07-29T09:38:32;101872.25;;;25.52;53.12
60437;BME280;46289;51.992;4.498;2022-07-29T09:41:06;101876.50;;;25.87;52.56
60437;BME280;46289;51.992;4.498;2022-07-29T09:43:37;101876.59;;;25.56;52.88
60437;BME280;46289;51.992;4.498;2022-07-29T09:46:13;101879.09;;;26.15;52.47
60437;BME280;46289;51.992;4.498;2022-07-29T09:48:43;101868.72;;;26.29;49.83
60437;BME280;46289;51.992;4.498;2022-07-29T09:51:17;101870.34;;;25.56;53.04
60437;BME280;46289;51.992;4.498;2022-07-29T09:54:21;101879.59;;;26.26;51.72
60437;BME280;46289;51.992;4.498;2022-07-29T09:56:55;101873.16;;;26.30;51.58
60437;BME280;46289;51.992;4.498;2022-07-29T09:59:25;101875.97;;;26.27;50.64
60437;BME280;46289;51.992;4.498;2022-07-29T10:01:56;101883.28;;;25.15;52.46
60437;BME280;46289;51.992;4.498;2022-07-29T10:04:42;101880.94;;;25.32;54.06
60437;BME280;46289;51.992;4.498;2022-07-29T10:07:12;101880.41;;;25.49;52.94
60437;BME280;46289;51.992;4.498;2022-07-29T10:09:50;101885.69;;;25.52;53.30
60437;BME280;46289;51.992;4.498;2022-07-29T10:12:24;101872.09;;;25.85;52.92
60437;BME280;46289;51.992;4.498;2022-07-29T10:14:55;101870.34;;;26.08;51.75
60437;BME280;46289;51.992;4.498;2022-07-29T10:17:26;101869.38;;;26.11;52.92
60437;BME280;46289;51.992;4.498;2022-07-29T10:19:57;101876.13;;;25.43;51.69
60437;BME280;46289;51.992;4.498;2022-07-29T10:22:28;101876.75;;;24.94;54.33
60437;BME280;46289;51.992;4.498;2022-07-29T10:25:19;101875.66;;;25.85;56.40
60437;BME280;46289;51.992;4.498;2022-07-29T10:27:53;101878.84;;;25.14;50.45
60437;BME280;46289;51.992;4.498;2022-07-29T10:30:25;101872.84;;;25.34;51.73
60437;BME280;46289;51.992;4.498;2022-07-29T10:33:20;101872.31;;;25.23;50.92
60437;BME280;46289;51.992;4.498;2022-07-29T10:36:01;101874.91;;;25.26;51.73
60437;BME280;46289;51.992;4.498;2022-07-29T10:38:49;101866.31;;;26.47;51.17
60437;BME280;46289;51.992;4.498;2022-07-29T10:41:43;101871.38;;;26.04;53.71
60437;BME280;46289;51.992;4.498;2022-07-29T10:44:21;101868.38;;;25.89;50.05
60437;BME280;46289;51.992;4.498;2022-07-29T10:46:52;101863.28;;;26.31;48.85
60437;BME280;46289;51.992;4.498;2022-07-29T10:49:24;101859.91;;;26.74;50.59
60437;BME280;46289;51.992;4.498;2022-07-29T10:52:00;101853.97;;;26.89;48.32
60437;BME280;46289;51.992;4.498;2022-07-29T10:54:42;101855.00;;;27.30;47.52
60437;BME280;46289;51.992;4.498;2022-07-29T10:57:25;101852.66;;;27.66;48.89
60437;BME280;46289;51.992;4.498;2022-07-29T11:00:31;101857.66;;;27.54;49.96
60437;BME280;46289;51.992;4.498;2022-07-29T11:03:02;101856.50;;;27.16;50.46
60437;BME280;46289;51.992;4.498;2022-07-29T11:05:52;101847.50;;;27.39;47.42
60437;BME280;46289;51.992;4.498;2022-07-29T11:08:27;101853.06;;;27.34;48.46
60437;BME280;46289;51.992;4.498;2022-07-29T11:14:04;101840.72;;;27.50;46.37
60437;BME280;46289;51.992;4.498;2022-07-29T11:17:03;101846.09;;;28.35;48.12
60437;BME280;46289;51.992;4.498;2022-07-29T11:19:34;101848.84;;;28.33;47.04
60437;BME280;46289;51.992;4.498;2022-07-29T11:22:35;101848.91;;;28.11;45.69
60437;BME280;46289;51.992;4.498;2022-07-29T11:25:13;101841.31;;;28.00;45.54
60437;BME280;46289;51.992;4.498;2022-07-29T11:27:44;101837.78;;;27.78;45.29
60437;BME280;46289;51.992;4.498;2022-07-29T11:30:17;101838.84;;;28.15;44.39
60437;BME280;46289;51.992;4.498;2022-07-29T11:32:53;101852.31;;;27.96;43.58
60437;BME280;46289;51.992;4.498;2022-07-29T11:35:23;101842.63;;;27.70;44.05
60437;BME280;46289;51.992;4.498;2022-07-29T11:38:24;101844.44;;;27.70;42.27
60437;BME280;46289;51.992;4.498;2022-07-29T11:41:23;101850.31;;;27.79;44.34
60437;BME280;46289;51.992;4.498;2022-07-29T11:43:55;101848.53;;;28.00;44.82
60437;BME280;46289;51.992;4.498;2022-07-29T11:46:45;101848.91;;;27.71;42.35
60437;BME280;46289;51.992;4.498;2022-07-29T11:49:23;101839.13;;;27.68;40.27
60437;BME280;46289;51.992;4.498;2022-07-29T11:52:02;101850.88;;;27.22;41.91
60437;BME280;46289;51.992;4.498;2022-07-29T11:54:39;101855.53;;;26.71;40.28
60437;BME280;46289;51.992;4.498;2022-07-29T11:57:26;101852.03;;;26.93;41.61
60437;BME280;46289;51.992;4.498;2022-07-29T12:00:04;101847.88;;;27.51;44.79
60437;BME280;46289;51.992;4.498;2022-07-29T12:02:40;101850.38;;;28.59;42.36
60437;BME280;46289;51.992;4.498;2022-07-29T12:05:17;101840.00;;;27.68;39.34
60437;BME280;46289;51.992;4.498;2022-07-29T12:08:11;101841.75;;;27.48;40.21
60437;BME280;46289;51.992;4.498;2022-07-29T12:10:42;101842.06;;;27.40;41.23
60437;BME280;46289;51.992;4.498;2022-07-29T12:13:14;101853.00;;;26.90;41.64
60437;BME280;46289;51.992;4.498;2022-07-29T12:15:52;101845.53;;;27.86;42.50
60437;BME280;46289;51.992;4.498;2022-07-29T12:18:26;101861.13;;;27.99;41.08
60437;BME280;46289;51.992;4.498;2022-07-29T12:21:01;101855.91;;;27.53;40.50
60437;BME280;46289;51.992;4.498;2022-07-29T12:23:32;101861.13;;;27.99;42.08
60437;BME280;46289;51.992;4.498;2022-07-29T12:26:04;101854.72;;;28.43;40.39
60437;BME280;46289;51.992;4.498;2022-07-29T12:28:37;101859.31;;;28.80;40.49
60437;BME280;46289;51.992;4.498;2022-07-29T12:31:13;101858.09;;;29.06;40.23
60437;BME280;46289;51.992;4.498;2022-07-29T12:34:03;101851.56;;;28.72;39.45
60437;BME280;46289;51.992;4.498;2022-07-29T12:36:38;101859.09;;;28.45;40.30
60437;BME280;46289;51.992;4.498;2022-07-29T12:39:08;101861.47;;;28.32;40.54
60437;BME280;46289;51.992;4.498;2022-07-29T12:41:39;101855.69;;;29.00;40.84
60437;BME280;46289;51.992;4.498;2022-07-29T12:44:09;101859.44;;;29.33;38.98
60437;BME280;46289;51.992;4.498;2022-07-29T12:46:39;101854.84;;;28.40;40.50
60437;BME280;46289;51.992;4.498;2022-07-29T12:49:09;101862.81;;;28.43;41.01
60437;BME280;46289;51.992;4.498;2022-07-29T12:51:42;101852.34;;;28.94;41.39
60437;BME280;46289;51.992;4.498;2022-07-29T12:54:13;101851.19;;;29.36;41.90
60437;BME280;46289;51.992;4.498;2022-07-29T12:56:44;101857.72;;;29.13;40.23
60437;BME280;46289;51.992;4.498;2022-07-29T12:59:18;101848.25;;;29.05;40.54
60437;BME280;46289;51.992;4.498;2022-07-29T13:01:50;101850.63;;;27.50;41.82
60437;BME280;46289;51.992;4.498;2022-07-29T13:04:25;101844.16;;;27.97;42.24
60437;BME280;46289;51.992;4.498;2022-07-29T13:07:04;101848.63;;;28.17;42.10
60437;BME280;46289;51.992;4.498;2022-07-29T13:09:38;101845.06;;;27.76;41.83
60437;BME280;46289;51.992;4.498;2022-07-29T13:12:10;101843.38;;;28.14;40.87
60437;BME280;46289;51.992;4.498;2022-07-29T13:14:41;101862.00;;;28.41;41.90
60437;BME280;46289;51.992;4.498;2022-07-29T13:17:13;101846.59;;;29.19;41.02
60437;BME280;46289;51.992;4.498;2022-07-29T13:19:45;101851.69;;;28.89;39.73
60437;BME280;46289;51.992;4.498;2022-07-29T13:22:20;101855.44;;;29.42;39.99
60437;BME280;46289;51.992;4.498;2022-07-29T13:24:52;101852.72;;;28.07;40.19
60437;BME280;46289;51.992;4.498;2022-07-29T13:27:27;101861.41;;;27.93;40.51